Main page
METAR-TAF:

METAR-TAF

Airports :

Tanagra, Greece

latitude: 38-19N, longitude: 023-32E, elevation: 148 m

METAR: missing

Time: 03:32 (00:32 UTC)

Forecast

The report was made 1 hour and 32 minutes ago, at 23:00 UTC
Forecast valid from 07 at 00 UTC to 07 at 09 UTC
Wind 15 kt from the North
Visibility 10 km or more
Few clouds at a height of 1000 ft
Broken clouds at a height of 2000 ft
Broken clouds at a height of 7000 ft
Temporary
from 07 at 00 UTC to 07 at 09 UTC
Visibility: 5000 m
rain
Temporary
from 07 at 00 UTC to 07 at 09 UTC
Wind 15 kt from the North with gusts up to 25 kt

TAF: LGTG 062300Z 0700/0709 35015KT 9999 FEW010 BKN020 BKN070 TEMPO 0700/0709 5000 RA TEMPO 0700/0709 35015G25KT

Weather observations and forecasts of more than 4000 airports (METAR and TAF reports).

The available stations are represented by yellow and red dots on the map.

Hover mouse over dot to see the name of the station.

Then click to see weather observations and forecasts.

To change the map : click on the green buttons with a black cross to zoom in, on the green button with a dash to zoom out, or on the green arrows for adjacent maps.


METAR-TAF: